Torun, Poland
Current Conditions -  °F | °C
As of 3:00 PM on Wednesday 26 Nov 2014 (Local Time) from EPBY Reporting Station
Broken Clouds Broken Clouds  
Wind Chill: 43°   Ceiling: 1200
Heat Index: 43°   Visibility: 6mi
Dew Point: 37°   Wind: 2mph
Humidity: 81%   Direction: 160°SSE
Pressure: 30.27"   Gusts: NA
Location:  53.02°N, 18.61°E
Report Text: EPBY 261300Z 16002KT 9999 BKN012 06/03 Q1025
Loading
Personal Weather Stations






























Interactive Weather Map New forecast layout! Learn more

10-Day Weather Forecast

Advertisements
Track Severe Weather on mobile